Time;durP1;ratioP1;P1;durP2;ratioP2;P2;SDS_P1;SDS_P2;PMS_P1;PMS_P2;Temp;Humidity;BMP_temperature;BMP_pressure;BME280_temperature;BME280_humidity;BME280_pressure;Samples;Min_cycle;Max_cycle;Signal;HPM_P1;HPM_P2
2023/07/29 06:12:05;;;;;;;;;2.33;1.00;;;;;19.09;68.79;100730.84;6273755;22;44840;-94
2023/07/29 06:14:30;;;;;;;;;1.00;1.00;;;;;19.15;68.31;100733.97;6274916;22;45552;-94
2023/07/29 06:16:55;;;;;;;;;1.67;1.00;;;;;19.12;68.41;100731.56;6248291;22;45168;-95
2023/07/29 06:19:21;;;;;;;;;1.00;1.00;;;;;19.17;68.43;100734.72;6274945;22;45166;-96
2023/07/29 06:21:46;;;;;;;;;1.00;1.00;;;;;19.20;68.58;100737.97;6247480;22;45496;-94
2023/07/29 06:24:12;;;;;;;;;1.00;1.00;;;;;19.22;67.91;100743.97;6247551;22;46575;-96
2023/07/29 06:26:38;;;;;;;;;0.33;0.33;;;;;19.26;68.09;100756.94;6248488;22;45374;-94
2023/07/29 06:29:03;;;;;;;;;0.33;0.33;;;;;19.29;67.79;100768.13;6247229;22;45332;-95
2023/07/29 06:31:29;;;;;;;;;0.67;0.67;;;;;19.32;67.98;100772.31;6269992;22;45598;-94
2023/07/29 06:33:54;;;;;;;;;0.00;0.00;;;;;19.36;67.73;100776.44;6273586;22;46433;-93
2023/07/29 06:36:20;;;;;;;;;1.00;1.00;;;;;19.36;67.60;100769.34;6248624;22;45300;-94
2023/07/29 06:38:45;;;;;;;;;0.00;0.00;;;;;19.43;67.56;100782.94;6247054;22;45339;-94
2023/07/29 06:41:10;;;;;;;;;1.00;0.00;;;;;19.45;67.29;100782.84;6275699;22;45509;-94
2023/07/29 06:43:36;;;;;;;;;0.33;0.33;;;;;19.49;67.01;100782.50;6248049;22;47809;-95
2023/07/29 06:46:01;;;;;;;;;0.67;0.00;;;;;19.53;66.62;100777.00;6274928;22;45325;-94
2023/07/29 06:48:26;;;;;;;;;1.00;0.00;;;;;19.59;67.30;100787.91;6247574;22;45571;-94
2023/07/29 06:50:52;;;;;;;;;0.33;0.00;;;;;19.61;67.08;100775.47;6248961;22;44997;-94
2023/07/29 06:53:17;;;;;;;;;0.00;0.00;;;;;19.65;66.78;100770.81;6275777;22;45586;-94
2023/07/29 06:55:43;;;;;;;;;0.67;0.67;;;;;19.68;66.82;100781.16;6276215;22;45211;-94
2023/07/29 06:58:09;;;;;;;;;0.00;0.00;;;;;19.71;66.50;100775.63;6247758;22;45185;-95
2023/07/29 07:00:35;;;;;;;;;0.00;0.00;;;;;19.76;66.71;100775.28;6247671;22;45398;-95
2023/07/29 07:03:00;;;;;;;;;0.00;0.00;;;;;19.77;66.39;100785.72;6249431;22;47306;-94
2023/07/29 07:05:25;;;;;;;;;0.00;0.00;;;;;19.79;66.09;100796.19;6276525;22;45165;-95
2023/07/29 07:07:51;;;;;;;;;0.00;0.00;;;;;19.82;66.13;100790.69;6247966;22;45231;-96
2023/07/29 07:10:16;;;;;;;;;0.00;0.00;;;;;19.88;65.89;100795.50;6247775;22;45310;-95
2023/07/29 07:12:41;;;;;;;;;0.33;0.33;;;;;19.92;66.20;100796.13;6247238;22;45569;-95
2023/07/29 07:15:07;;;;;;;;;0.00;0.00;;;;;19.99;66.29;100799.16;6275017;22;45206;-95
2023/07/29 07:17:33;;;;;;;;;0.00;0.00;;;;;20.07;66.11;100802.06;6248454;22;45283;-96
2023/07/29 07:19:58;;;;;;;;;1.00;0.00;;;;;20.14;65.64;100802.47;6248836;22;44952;-94
2023/07/29 07:22:23;;;;;;;;;0.00;0.00;;;;;20.18;65.82;100806.53;6276195;22;45526;-96
2023/07/29 07:24:49;;;;;;;;;0.00;0.00;;;;;20.22;65.29;100807.97;6277232;22;45326;-95
2023/07/29 07:27:14;;;;;;;;;0.00;0.00;;;;;20.23;65.39;100811.47;6250273;22;45346;-95
2023/07/29 07:29:39;;;;;;;;;0.00;0.00;;;;;20.26;65.46;100816.50;6249578;22;45318;-95
2023/07/29 07:32:05;;;;;;;;;0.00;0.00;;;;;20.27;65.53;100821.69;6249591;22;46216;-95
2023/07/29 07:34:30;;;;;;;;;0.00;0.00;;;;;20.27;65.27;100816.41;6250039;22;44747;-96
2023/07/29 07:36:56;;;;;;;;;1.67;0.00;;;;;20.28;65.07;100814.63;6250042;22;45211;-94
2023/07/29 07:39:21;;;;;;;;;0.33;0.33;;;;;20.29;64.74;100814.47;6250108;22;45224;-95
2023/07/29 07:41:46;;;;;;;;;0.33;0.33;;;;;20.28;65.04;100818.09;6249344;22;48052;-94
2023/07/29 07:44:15;;;;;;;;;0.00;0.00;;;;;20.29;64.67;100816.28;6276688;22;45334;-95
2023/07/29 07:46:40;;;;;;;;;0.00;0.00;;;;;20.30;64.74;100828.53;6249779;22;45359;-94
2023/07/29 07:49:06;;;;;;;;;0.33;0.33;;;;;20.34;64.98;100830.00;6276680;22;45150;-95
2023/07/29 07:51:31;;;;;;;;;0.00;0.00;;;;;20.35;64.51;100833.47;6277082;22;45861;-96
2023/07/29 07:53:58;;;;;;;;;0.00;0.00;;;;;20.35;64.67;100830.81;6249379;22;44653;-95
2023/07/29 07:56:23;;;;;;;;;1.00;1.00;;;;;20.34;64.16;100827.34;6223840;22;45306;-96
2023/07/29 07:58:48;;;;;;;;;1.00;0.67;;;;;20.37;64.42;100829.75;6248561;22;45343;-96
2023/07/29 08:01:14;;;;;;;;;1.00;1.00;;;;;20.39;64.17;100822.56;6248456;22;46919;-95
2023/07/29 08:03:40;;;;;;;;;1.33;0.33;;;;;20.45;64.31;100825.69;6249631;22;45323;-96
2023/07/29 08:06:05;;;;;;;;;0.00;0.00;;;;;20.46;63.99;100822.09;6249331;22;45274;-94
2023/07/29 08:08:30;;;;;;;;;0.33;0.33;;;;;20.47;64.17;100821.97;6249761;22;45219;-95
2023/07/29 08:10:59;;;;;;;;;0.00;0.00;;;;;20.51;64.34;100833.16;6274206;22;45423;-95
2023/07/29 08:13:25;;;;;;;;;1.00;1.00;;;;;20.51;63.96;100826.06;6275769;22;45300;-92
2023/07/29 08:15:52;;;;;;;;;0.67;0.67;;;;;20.55;64.06;100831.97;6251579;22;45183;-95
2023/07/29 08:18:18;;;;;;;;;0.00;0.00;;;;;20.55;63.88;100827.50;6251065;22;45304;-95
2023/07/29 08:20:57;;;;;;;;;0.00;0.00;;;;;20.56;64.10;100825.72;6249021;22;47334;-95
2023/07/29 08:23:24;;;;;;;;;2.00;1.00;;;;;20.59;63.88;100830.75;6277367;22;44626;-96
2023/07/29 08:26:01;;;;;;;;;2.00;0.33;;;;;20.61;64.00;100820.91;6276527;22;45207;-95
2023/07/29 08:28:36;;;;;;;;;1.00;0.67;;;;;20.66;63.81;100825.84;6249671;22;45232;-94
2023/07/29 08:31:02;;;;;;;;;0.00;0.00;;;;;20.69;63.96;100820.31;6247551;22;47114;-96
2023/07/29 08:33:29;;;;;;;;;1.00;1.00;;;;;20.78;64.18;100826.69;6249091;22;45247;-96
2023/07/29 08:35:54;;;;;;;;;0.00;0.00;;;;;20.85;64.02;100822.63;6249580;22;45314;-96
2023/07/29 08:38:20;;;;;;;;;2.67;1.00;;;;;20.95;63.91;100822.75;6248517;22;45529;-96
2023/07/29 08:41:04;;;;;;;;;1.00;1.00;;;;;21.04;63.25;100819.38;6248301;22;45775;-95
2023/07/29 08:43:31;;;;;;;;;1.00;1.00;;;;;21.08;63.67;100815.53;6248647;22;44743;-96
2023/07/29 08:45:58;;;;;;;;;0.00;0.00;;;;;21.15;63.37;100825.63;6248685;22;45338;-95
2023/07/29 08:48:32;;;;;;;;;1.00;1.00;;;;;21.11;63.06;100814.44;6250441;22;45314;-96
2023/07/29 08:51:00;;;;;;;;;1.00;1.00;;;;;21.14;62.50;100824.78;6276759;22;45730;-95
2023/07/29 08:53:27;;;;;;;;;1.00;1.00;;;;;21.11;62.32;100817.09;6251251;22;45209;-95
2023/07/29 08:55:53;;;;;;;;;1.33;1.00;;;;;21.12;62.77;100812.63;6248641;22;45435;-96
2023/07/29 08:58:19;;;;;;;;;1.00;1.00;;;;;21.18;62.36;100809.47;6250206;22;45255;-95
2023/07/29 09:00:46;;;;;;;;;0.67;0.67;;;;;21.22;62.88;100816.22;6251991;22;45831;-96
2023/07/29 09:03:11;;;;;;;;;0.00;0.00;;;;;21.28;62.80;100814.91;6249666;22;45346;-96
2023/07/29 09:05:37;;;;;;;;;1.00;1.00;;;;;21.33;62.12;100813.53;6249917;22;45279;-95
2023/07/29 09:08:03;;;;;;;;;3.00;1.67;;;;;21.39;62.83;100809.59;6250054;22;45243;-96
2023/07/29 09:10:29;;;;;;;;;0.33;0.33;;;;;21.47;62.49;100803.63;6248406;22;45399;-95
2023/07/29 09:12:55;;;;;;;;;1.00;1.00;;;;;21.55;62.23;100798.56;6248567;22;45493;-94
2023/07/29 09:15:28;;;;;;;;;1.00;1.00;;;;;21.65;61.90;100803.94;6249685;22;45407;-96
2023/07/29 09:17:55;;;;;;;;;0.67;0.67;;;;;21.67;61.59;100809.97;6249858;22;45247;-96
2023/07/29 09:20:27;;;;;;;;;1.00;1.00;;;;;21.69;61.77;100800.09;6251339;22;45714;-95
2023/07/29 09:23:01;;;;;;;;;1.00;1.00;;;;;21.73;61.60;100801.56;6251921;22;44739;-96
2023/07/29 09:25:30;;;;;;;;;1.00;1.00;;;;;21.81;61.59;100798.28;6250570;22;45290;-96
2023/07/29 09:28:00;;;;;;;;;0.67;0.67;;;;;21.88;61.70;100802.09;6251790;22;44912;-96
2023/07/29 09:30:26;;;;;;;;;0.33;0.33;;;;;21.99;61.47;100797.69;6254575;22;45286;-96
2023/07/29 09:32:58;;;;;;;;;0.33;0.33;;;;;22.09;61.04;100795.09;6253372;22;45438;-96
2023/07/29 09:35:27;;;;;;;;;0.33;0.33;;;;;22.20;60.52;100804.78;6253859;22;44802;-96
2023/07/29 09:37:55;;;;;;;;;2.33;1.33;;;;;22.27;60.45;100792.72;6251978;22;45165;-96
2023/07/29 09:40:24;;;;;;;;;1.00;1.00;;;;;22.33;59.82;100801.94;6251718;22;45864;-95
2023/07/29 09:42:51;;;;;;;;;0.33;0.33;;;;;22.37;59.75;100792.75;6250202;22;45275;-96
2023/07/29 09:45:24;;;;;;;;;0.00;0.00;;;;;22.42;59.74;100791.41;6251822;22;45280;-96
2023/07/29 09:47:50;;;;;;;;;1.33;0.00;;;;;22.49;59.19;100791.69;6250347;22;45385;-95
2023/07/29 09:50:16;;;;;;;;;1.33;1.33;;;;;22.61;59.19;100796.94;6249525;22;46948;-96
2023/07/29 09:52:43;;;;;;;;;0.33;0.33;;;;;22.72;59.41;100793.38;6250207;22;45673;-96
2023/07/29 09:55:11;;;;;;;;;0.00;0.00;;;;;22.90;59.29;100790.91;6249601;22;44724;-95
2023/07/29 09:57:38;;;;;;;;;1.00;0.33;;;;;23.03;59.04;100795.97;6220598;22;45164;-96
2023/07/29 10:00:10;;;;;;;;;0.67;0.00;;;;;23.15;58.49;100805.50;6241554;22;45854;-96
2023/07/29 10:02:37;;;;;;;;;0.67;0.67;;;;;23.19;58.35;100804.25;6250746;22;45385;-95
2023/07/29 10:05:05;;;;;;;;;3.33;1.33;;;;;23.20;58.17;100792.66;6250334;22;45243;-95
2023/07/29 10:07:31;;;;;;;;;0.00;0.00;;;;;23.27;57.57;100789.47;6249609;22;44862;-95
2023/07/29 10:09:58;;;;;;;;;1.00;1.00;;;;;23.30;57.81;100789.19;6251464;22;45412;-96
2023/07/29 10:12:24;;;;;;;;;2.00;1.67;;;;;23.34;57.42;100796.75;6246382;22;45181;-96
2023/07/29 10:14:50;;;;;;;;;1.00;1.00;;;;;23.34;58.13;100786.16;6246557;22;44739;-95
2023/07/29 10:17:16;;;;;;;;;1.33;1.33;;;;;23.30;57.34;100790.03;6246317;22;44916;-96
2023/07/29 10:19:42;;;;;;;;;1.00;1.00;;;;;23.29;57.39;100796.31;6247805;22;45634;-96
2023/07/29 10:22:10;;;;;;;;;1.33;1.00;;;;;23.22;57.40;100796.03;6276653;22;45152;-95
2023/07/29 10:24:41;;;;;;;;;0.00;0.00;;;;;23.17;57.38;100797.41;6246479;22;45407;-96
2023/07/29 10:27:07;;;;;;;;;1.00;1.00;;;;;23.08;57.42;100794.59;6248814;22;45302;-95
2023/07/29 10:29:38;;;;;;;;;1.00;1.00;;;;;23.03;57.33;100796.81;6247106;22;45451;-96
2023/07/29 10:32:05;;;;;;;;;0.67;0.67;;;;;23.01;57.59;100798.75;6275881;22;44714;-96
2023/07/29 10:34:33;;;;;;;;;1.33;1.33;;;;;23.00;57.79;100798.91;6250440;22;45243;-96
2023/07/29 10:36:59;;;;;;;;;1.67;1.67;;;;;23.02;57.84;100799.59;6255955;22;45338;-96
2023/07/29 10:39:26;;;;;;;;;2.00;2.00;;;;;23.05;57.85;100804.66;6252381;22;46831;-96
2023/07/29 10:41:56;;;;;;;;;1.00;1.00;;;;;23.07;57.66;100795.59;6249962;22;44997;-96
2023/07/29 10:44:39;;;;;;;;;2.00;1.33;;;;;23.18;57.95;100791.13;6247014;22;45363;-96
2023/07/29 10:47:32;;;;;;;;;2.33;2.33;;;;;23.31;57.91;100793.53;6246202;22;44835;-96
2023/07/29 10:49:59;;;;;;;;;2.00;0.33;;;;;23.45;57.50;100797.63;6204326;22;45829;-96
2023/07/29 10:52:42;;;;;;;;;1.67;1.67;;;;;23.62;57.95;100793.44;6247819;22;44740;-96
2023/07/29 10:55:38;;;;;;;;;1.33;1.33;;;;;23.77;57.42;100801.81;6249786;22;45400;-96
2023/07/29 10:58:17;;;;;;;;;3.00;2.33;;;;;23.89;57.54;100799.88;6246348;22;44839;-96
2023/07/29 11:00:45;;;;;;;;;2.00;2.00;;;;;23.92;57.22;100796.09;6276926;22;45505;-96
2023/07/29 11:03:16;;;;;;;;;2.00;2.00;;;;;23.93;56.65;100801.25;6248942;22;45867;-96
2023/07/29 11:05:50;;;;;;;;;1.00;1.00;;;;;23.88;55.96;100792.84;6249250;22;45290;-96
2023/07/29 11:08:21;;;;;;;;;2.00;2.00;;;;;23.79;56.84;100786.56;6251114;22;45480;-96
2023/07/29 11:11:05;;;;;;;;;1.00;1.00;;;;;23.85;56.48;100795.81;6248772;22;47561;-96
2023/07/29 11:13:33;;;;;;;;;2.00;2.00;;;;;23.92;56.49;100791.59;6254306;22;45372;-96
2023/07/29 11:15:59;;;;;;;;;2.00;1.33;;;;;24.00;56.42;100780.25;6251251;22;45291;-96
2023/07/29 11:18:31;;;;;;;;;1.00;1.00;;;;;24.08;56.29;100771.63;6251859;22;45086;-96
2023/07/29 11:20:59;;;;;;;;;1.00;1.00;;;;;24.26;56.61;100782.34;6252628;22;47369;-96
2023/07/29 11:23:30;;;;;;;;;1.00;1.00;;;;;24.51;56.26;100764.91;6256214;22;44753;-96
2023/07/29 11:25:56;;;;;;;;;1.00;1.00;;;;;24.69;56.38;100766.78;6255267;22;45467;-96
2023/07/29 11:28:21;;;;;;;;;2.00;1.00;;;;;24.89;55.92;100769.34;6256901;22;44896;-96
2023/07/29 11:30:49;;;;;;;;;1.33;1.33;;;;;25.11;55.87;100768.13;6254986;22;47563;-96
2023/07/29 11:33:18;;;;;;;;;2.33;1.00;;;;;25.26;54.63;100772.94;6257801;22;44695;-95
2023/07/29 11:35:44;;;;;;;;;0.00;0.00;;;;;25.29;54.36;100777.94;6262118;22;44785;-96
2023/07/29 11:38:15;;;;;;;;;1.33;1.33;;;;;25.27;54.61;100769.28;6256878;22;44790;-96
2023/07/29 11:40:41;;;;;;;;;1.00;1.00;;;;;25.30;54.04;100764.47;6258507;22;46973;-96
2023/07/29 11:43:06;;;;;;;;;0.00;0.00;;;;;25.38;54.65;100768.22;6255612;22;45393;-96
2023/07/29 11:45:34;;;;;;;;;0.33;0.33;;;;;25.37;54.27;100770.03;6260749;22;44663;-96
2023/07/29 11:48:03;;;;;;;;;2.33;2.33;;;;;25.44;53.72;100760.44;6259438;22;45254;-96
2023/07/29 11:50:30;;;;;;;;;1.00;1.00;;;;;25.57;54.05;100761.91;6283028;22;45323;-96
2023/07/29 11:52:56;;;;;;;;;1.00;1.00;;;;;25.69;53.11;100755.34;6253286;22;45939;-96
2023/07/29 11:55:21;;;;;;;;;1.00;1.00;;;;;25.81;53.25;100750.63;6251111;22;45267;-96
2023/07/29 11:57:51;;;;;;;;;1.00;1.00;;;;;25.86;53.41;100758.97;6255810;22;45152;-96
2023/07/29 12:00:18;;;;;;;;;1.00;1.00;;;;;25.87;53.01;100750.00;6251239;22;47108;-95
2023/07/29 12:02:45;;;;;;;;;1.00;0.00;;;;;25.87;53.19;100751.84;6249145;22;45320;-96
2023/07/29 12:05:12;;;;;;;;;1.00;1.00;;;;;25.83;53.17;100743.28;6253517;22;44837;-96
2023/07/29 12:07:42;;;;;;;;;0.00;0.00;;;;;25.81;53.54;100739.09;6260745;22;45331;-96
2023/07/29 12:10:11;;;;;;;;;0.00;0.00;;;;;25.76;53.15;100742.25;6263586;22;47702;-96
2023/07/29 12:12:47;;;;;;;;;0.67;0.67;;;;;25.68;52.94;100736.88;6236688;22;44685;-96
2023/07/29 12:15:13;;;;;;;;;2.67;1.00;;;;;25.61;52.64;100739.31;6255721;22;45421;-96
2023/07/29 12:17:42;;;;;;;;;2.00;0.00;;;;;25.59;53.26;100738.63;6257426;22;45395;-96
2023/07/29 12:20:11;;;;;;;;;1.00;1.00;;;;;25.56;52.98;100734.47;6264567;22;47246;-96
2023/07/29 12:22:37;;;;;;;;;2.00;1.00;;;;;25.50;54.14;100735.00;6265142;22;44619;-96
2023/07/29 12:25:04;;;;;;;;;1.00;1.00;;;;;25.40;53.11;100744.94;6263474;22;45122;-96
2023/07/29 12:27:30;;;;;;;;;1.00;1.00;;;;;25.27;54.19;100742.66;6260207;22;45311;-96
2023/07/29 12:30:03;;;;;;;;;1.00;1.00;;;;;25.15;54.03;100736.69;6265602;22;46928;-96
2023/07/29 12:32:29;;;;;;;;;1.33;1.33;;;;;25.06;55.39;100743.78;6261207;22;45427;-96
2023/07/29 12:34:54;;;;;;;;;0.33;0.00;;;;;24.97;54.91;100747.31;6266356;22;44741;-96
2023/07/29 12:45:06;;;;;;;;;1.00;0.00;;;;;24.57;55.96;100728.06;6321069;22;45238;-96
2023/07/29 12:47:33;;;;;;;;;0.67;0.67;;;;;24.44;56.38;100728.41;6324774;22;44919;-96
2023/07/29 12:49:59;;;;;;;;;2.00;1.33;;;;;24.35;56.38;100730.94;6332264;22;45542;-96
2023/07/29 12:52:27;;;;;;;;;2.00;0.67;;;;;24.30;57.02;100727.88;6334505;22;45265;-96
2023/07/29 12:57:28;;;;;;;;;0.00;0.00;;;;;24.62;58.13;100709.84;6319983;22;44884;-96
2023/07/29 12:59:57;;;;;;;;;2.00;1.00;;;;;24.83;57.46;100709.59;6301074;22;46995;-96
2023/07/29 13:02:26;;;;;;;;;0.33;0.33;;;;;25.02;56.80;100713.09;6331818;22;44674;-96
2023/07/29 17:42:49;;;;;;;;;2.33;2.33;;;;;24.41;58.28;100687.00;6323455;22;45069;-96
2023/07/29 17:45:16;;;;;;;;;2.00;2.00;;;;;24.42;58.44;100684.19;6302768;22;47008;-96
2023/07/29 17:47:46;;;;;;;;;5.00;3.33;;;;;24.42;58.51;100693.97;6251585;22;44796;-96
2023/07/29 17:50:12;;;;;;;;;1.00;1.00;;;;;24.42;58.85;100699.28;6304957;22;44709;-96
2023/07/29 17:52:42;;;;;;;;;3.00;3.00;;;;;24.42;59.00;100701.94;6303096;22;44935;-96
2023/07/29 17:55:09;;;;;;;;;2.67;2.67;;;;;24.40;58.63;100714.56;6279312;22;45783;-96
2023/07/29 17:57:38;;;;;;;;;2.33;2.33;;;;;24.38;59.16;100713.84;6304691;22;44751;-96
2023/07/29 18:00:24;;;;;;;;;1.33;1.33;;;;;24.37;58.90;100715.69;6320984;22;45253;-91
2023/07/29 18:02:52;;;;;;;;;2.33;2.00;;;;;24.34;58.75;100721.28;6273543;22;45460;-91
2023/07/29 18:05:27;;;;;;;;;2.67;2.67;;;;;24.33;59.13;100724.09;6275292;22;46734;-90
2023/07/29 18:07:53;;;;;;;;;3.67;2.67;;;;;24.30;59.28;100727.88;6275513;22;45425;-90
2023/07/29 18:10:19;;;;;;;;;2.00;2.00;;;;;24.28;59.50;100721.88;6275280;22;44754;-90
2023/07/29 18:12:44;;;;;;;;;1.00;1.00;;;;;24.26;59.73;100726.53;6275548;22;45293;-91
2023/07/29 18:15:10;;;;;;;;;1.00;0.67;;;;;24.25;59.54;100723.00;6302340;22;46294;-91
2023/07/29 18:17:36;;;;;;;;;3.33;3.33;;;;;24.24;59.92;100736.44;6274441;22;46048;-91
2023/07/29 18:20:02;;;;;;;;;2.00;2.00;;;;;24.22;59.69;100733.09;6302063;22;45396;-90
2023/07/29 18:22:27;;;;;;;;;4.00;3.00;;;;;24.20;60.38;100738.56;6276039;22;45511;-90
2023/07/29 18:24:53;;;;;;;;;4.33;2.33;;;;;24.20;60.39;100743.06;6275457;22;45438;-92
2023/07/29 18:27:18;;;;;;;;;4.00;3.33;;;;;24.18;60.29;100740.53;6275406;22;45461;-90
2023/07/29 18:29:44;;;;;;;;;3.00;3.00;;;;;24.15;60.67;100741.66;6276152;22;45390;-91
2023/07/29 18:32:09;;;;;;;;;6.33;4.00;;;;;24.14;60.85;100737.34;6274900;22;45728;-90
2023/07/29 18:34:35;;;;;;;;;3.33;3.33;;;;;24.13;60.81;100743.63;6274246;22;47176;-90
2023/07/29 18:37:00;;;;;;;;;3.00;2.00;;;;;24.10;60.71;100733.28;6300764;22;45362;-90
2023/07/29 18:39:26;;;;;;;;;2.00;2.00;;;;;24.07;60.66;100738.84;6275723;22;45490;-90
2023/07/29 18:41:51;;;;;;;;;3.00;3.00;;;;;24.06;60.55;100754.94;6275522;22;45560;-90
2023/07/29 18:44:17;;;;;;;;;4.00;4.00;;;;;24.01;60.13;100758.88;6275645;22;47974;-90
2023/07/29 18:46:42;;;;;;;;;4.33;4.33;;;;;23.97;60.36;100760.13;6275792;22;45469;-91
2023/07/29 18:49:08;;;;;;;;;4.00;4.00;;;;;23.95;60.22;100761.25;6275137;22;45735;-91
2023/07/29 18:51:35;;;;;;;;;3.67;3.67;;;;;23.95;60.23;100769.22;6275217;22;45405;-89
2023/07/29 18:54:04;;;;;;;;;5.67;4.67;;;;;23.91;60.64;100775.78;6275136;22;47245;-90
2023/07/29 18:56:29;;;;;;;;;5.67;5.00;;;;;23.87;60.99;100778.75;6274303;22;45253;-90
2023/07/29 18:58:55;;;;;;;;;5.33;5.33;;;;;23.84;60.72;100783.50;6302339;22;45160;-90
2023/07/29 19:01:23;;;;;;;;;5.67;5.00;;;;;23.82;60.71;100788.13;6274191;22;45474;-90
2023/07/29 19:03:49;;;;;;;;;7.33;7.00;;;;;23.76;60.99;100786.88;6302582;22;46521;-91
2023/07/29 19:06:14;;;;;;;;;6.00;6.00;;;;;23.72;60.76;100788.13;6273558;22;45410;-90
2023/07/29 19:08:40;;;;;;;;;5.67;5.67;;;;;23.68;61.42;100790.22;6274834;22;45356;-91
2023/07/29 19:11:05;;;;;;;;;7.00;7.00;;;;;23.63;60.99;100787.16;6273916;22;45515;-90
2023/07/29 19:13:31;;;;;;;;;9.00;8.33;;;;;23.59;61.23;100786.59;6275043;22;47159;-90
2023/07/29 19:15:57;;;;;;;;;14.33;11.33;;;;;23.57;61.25;100790.38;6276281;22;45432;-91
2023/07/29 19:18:23;;;;;;;;;10.67;10.67;;;;;23.53;61.95;100794.28;6276644;22;44935;-90
2023/07/29 19:20:52;;;;;;;;;10.67;8.33;;;;;23.47;61.33;100799.16;6305039;22;45287;-91
2023/07/29 19:23:19;;;;;;;;;9.00;9.00;;;;;23.42;61.85;100798.72;6304484;22;46581;-90
2023/07/29 19:25:48;;;;;;;;;8.67;8.00;;;;;23.39;61.73;100799.03;6302774;22;45467;-90
2023/07/29 19:28:17;;;;;;;;;11.33;9.67;;;;;23.38;61.61;100799.16;6301503;22;45219;-90
2023/07/29 19:30:54;;;;;;;;;12.00;11.00;;;;;23.35;62.01;100800.28;6284025;22;45310;-96
2023/07/29 19:33:25;;;;;;;;;12.33;10.00;;;;;23.30;61.95;100789.19;6167169;22;45818;-96
2023/07/29 19:35:55;;;;;;;;;28.25;25.50;;;;;23.28;62.02;100797.28;6307580;22;44662;-96
2023/07/29 19:43:31;;;;;;;;;30.00;29.50;;;;;23.16;62.22;100803.69;6273778;22;45588;-90
2023/07/29 19:45:59;;;;;;;;;24.33;23.67;;;;;23.13;62.53;100811.94;6277275;22;45304;-90
2023/07/29 19:48:54;;;;;;;;;18.67;17.67;;;;;23.10;62.45;100810.41;6281884;22;46090;-96
2023/07/29 19:51:21;;;;;;;;;19.33;19.33;;;;;23.06;62.51;100812.47;6316372;22;45374;-94
2023/07/29 19:53:46;;;;;;;;;11.67;11.00;;;;;23.03;62.31;100806.59;6305540;22;45668;-93
2023/07/29 19:56:18;;;;;;;;;15.67;14.00;;;;;23.02;62.23;100804.91;6338246;22;45330;-92
2023/07/29 19:58:44;;;;;;;;;12.33;11.33;;;;;22.97;62.63;100813.28;6303245;22;45396;-93
2023/07/29 20:01:10;;;;;;;;;11.33;10.67;;;;;22.93;62.64;100815.38;6330761;22;45308;-92
2023/07/29 20:03:36;;;;;;;;;13.00;11.67;;;;;22.90;62.41;100810.34;6302556;22;45486;-92
2023/07/29 20:06:01;;;;;;;;;11.33;11.33;;;;;22.87;62.51;100807.94;6303623;22;45323;-93
2023/07/29 20:08:27;;;;;;;;;11.00;11.00;;;;;22.85;62.61;100814.38;6303984;22;45577;-92
2023/07/29 20:10:52;;;;;;;;;13.67;13.67;;;;;22.81;62.98;100813.78;6303219;22;45330;-93
2023/07/29 20:13:18;;;;;;;;;10.00;10.00;;;;;22.78;62.43;100820.19;6330113;22;45637;-92
2023/07/29 20:15:43;;;;;;;;;8.67;8.33;;;;;22.76;62.89;100823.94;6304979;22;45380;-93
2023/07/29 20:18:09;;;;;;;;;10.67;9.67;;;;;22.71;62.67;100824.34;6328872;22;45377;-92
2023/07/29 20:20:34;;;;;;;;;10.67;10.00;;;;;22.70;62.76;100820.03;6303427;22;44962;-93
2023/07/29 20:23:00;;;;;;;;;9.67;9.67;;;;;22.71;62.89;100826.19;6303030;22;45405;-92
2023/07/29 20:25:25;;;;;;;;;9.33;9.33;;;;;22.66;63.14;100829.22;6327706;22;45186;-93
2023/07/29 20:27:51;;;;;;;;;9.67;7.67;;;;;22.66;63.24;100831.88;6303472;22;45249;-93
2023/07/29 20:30:16;;;;;;;;;10.00;9.00;;;;;22.64;63.04;100839.94;6305170;22;45254;-92
2023/07/29 20:32:41;;;;;;;;;8.33;8.33;;;;;22.62;62.83;100843.69;6303302;22;46704;-92
2023/07/29 20:35:07;;;;;;;;;12.33;11.00;;;;;22.59;63.33;100842.16;6302161;22;45254;-92
2023/07/29 20:37:32;;;;;;;;;9.33;9.33;;;;;22.58;63.65;100845.78;6303701;22;45247;-92
2023/07/29 20:39:58;;;;;;;;;11.00;11.00;;;;;22.57;63.36;100843.28;6330806;22;45214;-92
2023/07/29 20:42:23;;;;;;;;;7.67;7.00;;;;;22.56;63.67;100842.44;6304759;22;45833;-92
2023/07/29 20:44:49;;;;;;;;;10.67;10.67;;;;;22.53;63.68;100847.97;6302997;22;45655;-92
2023/07/29 20:47:14;;;;;;;;;13.00;12.67;;;;;22.52;63.85;100847.16;6301512;22;45307;-92
2023/07/29 20:49:44;;;;;;;;;10.67;10.67;;;;;22.49;64.07;100841.25;6335702;22;45333;-93
2023/07/29 20:52:10;;;;;;;;;10.33;10.33;;;;;22.50;64.12;100849.06;6307314;22;47189;-92
2023/07/29 20:54:35;;;;;;;;;12.67;11.33;;;;;22.47;63.96;100851.13;6307725;22;45351;-92
2023/07/29 20:57:01;;;;;;;;;10.67;10.33;;;;;22.47;64.02;100857.28;6308582;22;45050;-92
2023/07/29 20:59:26;;;;;;;;;13.00;11.00;;;;;22.44;64.36;100857.53;6309067;22;45499;-92
2023/07/29 21:01:51;;;;;;;;;13.33;13.33;;;;;22.42;63.66;100857.69;6307270;22;46334;-94
2023/07/29 21:04:17;;;;;;;;;12.00;10.67;;;;;22.41;64.52;100860.47;6335260;22;45219;-92
2023/07/29 21:06:43;;;;;;;;;14.67;13.33;;;;;22.39;64.10;100857.09;6305805;22;45462;-93
2023/07/29 21:09:09;;;;;;;;;11.33;10.67;;;;;22.40;64.36;100856.13;6335911;22;45439;-92
2023/07/29 21:11:34;;;;;;;;;12.33;12.33;;;;;22.37;64.24;100859.88;6307149;22;45798;-92
2023/07/29 21:14:01;;;;;;;;;11.67;11.67;;;;;22.34;64.21;100862.78;6306590;22;44818;-93
2023/07/29 21:16:26;;;;;;;;;10.00;10.00;;;;;22.32;64.40;100866.53;6281974;22;44800;-93
2023/07/29 21:18:51;;;;;;;;;11.00;11.00;;;;;22.31;64.47;100865.69;6333853;22;45865;-90
2023/07/29 21:21:17;;;;;;;;;11.67;11.33;;;;;22.26;64.42;100867.91;6281177;22;46008;-90
2023/07/29 21:23:42;;;;;;;;;12.00;10.00;;;;;22.22;64.13;100869.94;6305237;22;45497;-90
2023/07/29 21:26:08;;;;;;;;;9.00;8.33;;;;;22.18;64.08;100876.50;6307177;22;45478;-90
2023/07/29 21:28:33;;;;;;;;;11.00;11.00;;;;;22.15;64.36;100882.88;6307486;22;44951;-89
2023/07/29 21:31:01;;;;;;;;;11.33;11.33;;;;;22.11;64.60;100876.16;6334049;22;45527;-90
2023/07/29 21:33:27;;;;;;;;;13.67;12.33;;;;;22.08;64.99;100870.28;6305200;22;45410;-90
2023/07/29 21:35:53;;;;;;;;;10.33;9.67;;;;;22.06;64.74;100878.34;6307123;22;45721;-90
2023/07/29 21:38:18;;;;;;;;;10.33;10.33;;;;;22.03;65.09;100873.28;6334392;22;45329;-90
2023/07/29 21:40:48;;;;;;;;;11.00;11.00;;;;;22.03;64.68;100873.28;6334953;22;46203;-90
2023/07/29 21:43:13;;;;;;;;;14.67;13.00;;;;;22.01;65.03;100869.94;6306531;22;45398;-90
2023/07/29 21:45:39;;;;;;;;;11.00;11.00;;;;;22.01;65.19;100868.13;6304875;22;45323;-90
2023/07/29 21:48:05;;;;;;;;;13.33;13.33;;;;;21.98;65.42;100867.56;6306233;22;45306;-90
2023/07/29 21:50:30;;;;;;;;;11.67;11.67;;;;;22.00;65.05;100868.25;6305709;22;46880;-90
2023/07/29 21:52:55;;;;;;;;;11.67;11.67;;;;;21.98;65.51;100868.38;6306281;22;45384;-90
2023/07/29 21:55:21;;;;;;;;;13.33;12.33;;;;;21.98;65.54;100865.72;6305836;22;45713;-90
2023/07/29 21:57:46;;;;;;;;;11.67;11.33;;;;;21.96;65.32;100869.47;6334913;22;45551;-90
2023/07/29 22:00:12;;;;;;;;;14.00;12.00;;;;;21.97;65.72;100873.78;6305473;22;45794;-89
2023/07/29 22:02:37;;;;;;;;;11.67;11.67;;;;;21.96;65.47;100883.56;6307416;22;45327;-90
2023/07/29 22:16:11;;;;;;;;;14.67;13.67;;;;;21.93;66.08;100902.34;6132696;22;46247;-89
2023/07/29 22:18:37;;;;;;;;;11.33;11.33;;;;;21.95;65.57;100907.53;6145765;22;45302;-91
2023/07/29 22:21:02;;;;;;;;;10.33;8.00;;;;;21.73;64.48;100894.25;6209255;22;47461;-89
